Time;durP1;ratioP1;P1;durP2;ratioP2;P2;SDS_P1;SDS_P2;PMS_P1;PMS_P2;Temp;Humidity;BMP_temperature;BMP_pressure;BME280_temperature;BME280_humidity;BME280_pressure;Samples;Min_cycle;Max_cycle;Signal;HPM_P1;HPM_P2
2022/07/13 00:00:12;;;;;;;5.88;4.45;;;17.60;99.90;;;;;;2072144;28;20042;-71
2022/07/13 00:01:13;;;;;;;7.20;4.80;;;17.60;99.90;;;;;;2072184;28;20030;-72
2022/07/13 00:02:23;;;;;;;6.55;4.50;;;17.60;99.90;;;;;;2072695;28;20040;-73
2022/07/13 00:03:24;;;;;;;6.25;4.65;;;17.50;99.90;;;;;;2074327;28;20087;-72
2022/07/13 00:04:25;;;;;;;6.15;4.72;;;17.50;99.90;;;;;;2082053;28;20082;-71
2022/07/13 00:05:26;;;;;;;6.63;4.70;;;17.50;99.90;;;;;;2081690;28;20088;-71
2022/07/13 00:06:27;;;;;;;6.40;4.70;;;17.40;99.90;;;;;;2081851;28;20033;-72
2022/07/13 00:07:28;;;;;;;7.22;4.68;;;17.40;99.90;;;;;;2082464;28;20029;-72
2022/07/13 00:08:28;;;;;;;6.13;4.65;;;17.40;99.90;;;;;;2081564;28;20087;-72
2022/07/13 00:09:30;;;;;;;6.95;4.40;;;17.40;99.90;;;;;;2080320;28;20467;-73
2022/07/13 00:10:31;;;;;;;6.88;4.65;;;17.40;99.90;;;;;;2072170;28;20060;-73
2022/07/13 00:11:31;;;;;;;5.68;4.55;;;17.40;99.90;;;;;;2072155;28;20033;-75
2022/07/13 00:12:32;;;;;;;7.25;4.57;;;17.40;99.90;;;;;;2080475;28;20032;-75
2022/07/13 00:13:33;;;;;;;7.93;4.97;;;17.40;99.90;;;;;;2080177;28;20029;-72
2022/07/13 00:14:33;;;;;;;6.40;5.00;;;17.50;99.90;;;;;;2080809;28;20037;-75
2022/07/13 00:15:34;;;;;;;9.20;5.07;;;17.40;99.90;;;;;;2081068;28;20036;-72
2022/07/13 00:16:35;;;;;;;6.78;4.97;;;17.40;99.90;;;;;;2080932;28;20629;-72
2022/07/13 00:17:36;;;;;;;8.40;5.07;;;17.40;99.90;;;;;;2071744;28;20034;-72
2022/07/13 00:18:37;;;;;;;7.93;5.40;;;17.30;99.90;;;;;;2063911;28;20034;-72
2022/07/13 00:19:38;;;;;;;5.97;4.72;;;17.30;99.90;;;;;;2072049;28;20038;-71
2022/07/13 00:20:39;;;;;;;6.63;4.93;;;17.30;99.90;;;;;;2072065;28;20491;-72
2022/07/13 00:21:40;;;;;;;9.25;5.10;;;17.30;99.90;;;;;;2072022;28;20045;-72
2022/07/13 00:22:43;;;;;;;7.47;5.03;;;17.30;99.90;;;;;;2080748;28;20900;-72
2022/07/13 00:23:44;;;;;;;7.47;4.88;;;17.30;99.90;;;;;;2080801;28;20041;-72
2022/07/13 00:24:45;;;;;;;7.97;4.95;;;17.30;99.90;;;;;;2080743;28;20025;-72
2022/07/13 00:25:45;;;;;;;7.72;5.05;;;17.30;99.90;;;;;;2064014;28;20034;-72
2022/07/13 00:26:46;;;;;;;6.55;4.90;;;17.20;99.90;;;;;;2055772;28;20477;-70
2022/07/13 00:27:47;;;;;;;8.15;5.35;;;17.20;99.90;;;;;;2071794;28;20033;-71
2022/07/13 00:28:48;;;;;;;8.35;5.15;;;17.20;99.90;;;;;;2079932;28;20037;-71
2022/07/13 00:29:48;;;;;;;6.25;4.75;;;17.20;99.90;;;;;;2063688;28;20027;-72
2022/07/13 00:30:49;;;;;;;8.35;4.88;;;17.20;99.90;;;;;;2055989;28;20035;-71
2022/07/13 00:31:50;;;;;;;6.85;5.10;;;17.10;99.90;;;;;;2072246;28;20033;-72
2022/07/13 00:32:51;;;;;;;6.80;4.97;;;17.10;99.90;;;;;;2080553;28;20029;-72
2022/07/13 00:33:51;;;;;;;6.70;5.00;;;17.10;99.90;;;;;;2080816;28;20029;-72
2022/07/13 00:34:52;;;;;;;6.38;4.70;;;17.10;99.90;;;;;;2080592;28;20025;-72
2022/07/13 00:35:55;;;;;;;7.28;4.97;;;17.10;99.90;;;;;;2080494;28;20056;-73
2022/07/13 00:36:55;;;;;;;7.28;5.30;;;17.10;99.90;;;;;;2071217;28;20504;-72
2022/07/13 00:37:57;;;;;;;6.90;4.80;;;17.00;99.90;;;;;;2063528;28;20026;-73
2022/07/13 00:38:58;;;;;;;9.88;5.03;;;17.10;99.90;;;;;;2071474;28;20026;-72
2022/07/13 00:39:59;;;;;;;6.72;4.75;;;17.00;99.90;;;;;;2079547;28;20033;-72
2022/07/13 00:40:59;;;;;;;6.03;4.82;;;17.00;99.90;;;;;;2080500;28;20446;-72
2022/07/13 00:42:00;;;;;;;6.88;4.57;;;17.00;99.90;;;;;;2080583;28;20104;-72
2022/07/13 00:43:01;;;;;;;8.25;4.80;;;16.90;99.90;;;;;;2080635;28;20112;-72
2022/07/13 00:44:09;;;;;;;6.80;4.78;;;16.90;99.90;;;;;;2063746;28;20037;-72
2022/07/13 00:45:09;;;;;;;7.75;4.68;;;16.90;99.90;;;;;;2065554;28;20104;-71
2022/07/13 00:46:10;;;;;;;5.75;4.18;;;16.90;99.90;;;;;;2080426;28;20673;-71
2022/07/13 00:47:12;;;;;;;5.75;4.30;;;16.90;99.90;;;;;;2071448;28;20022;-74
2022/07/13 00:48:15;;;;;;;6.20;4.63;;;16.80;99.90;;;;;;2071637;28;20030;-72
2022/07/13 00:49:16;;;;;;;6.28;4.30;;;16.80;99.90;;;;;;2071638;28;20096;-71
2022/07/13 00:50:18;;;;;;;6.35;4.50;;;16.80;99.90;;;;;;2072226;28;20507;-73
2022/07/13 00:51:18;;;;;;;6.30;4.55;;;16.70;99.90;;;;;;2080738;28;20502;-72
2022/07/13 00:52:19;;;;;;;7.53;4.55;;;16.70;99.90;;;;;;2080639;28;20040;-72
2022/07/13 00:53:24;;;;;;;6.93;4.32;;;16.70;99.90;;;;;;2080745;28;20029;-72
2022/07/13 00:54:30;;;;;;;5.97;4.40;;;16.70;99.90;;;;;;2079728;28;20483;-71
2022/07/13 00:55:32;;;;;;;6.45;4.50;;;16.70;99.90;;;;;;2071673;28;20022;-73
2022/07/13 00:56:33;;;;;;;6.82;4.25;;;16.70;99.90;;;;;;2071759;28;20022;-72
2022/07/13 00:57:37;;;;;;;5.32;4.30;;;16.70;99.90;;;;;;2080315;28;20100;-71
2022/07/13 00:58:37;;;;;;;5.88;4.20;;;16.60;99.90;;;;;;2071364;28;20030;-71
2022/07/13 00:59:39;;;;;;;5.80;4.25;;;16.60;99.90;;;;;;2071412;28;20026;-72
2022/07/13 01:00:40;;;;;;;5.38;4.28;;;16.60;99.90;;;;;;2063317;28;20046;-73
2022/07/13 01:01:43;;;;;;;6.75;4.30;;;16.60;99.90;;;;;;2071524;28;20046;-75
2022/07/13 01:02:46;;;;;;;4.53;3.90;;;16.60;99.90;;;;;;2080449;28;20033;-72
2022/07/13 01:03:47;;;;;;;6.20;4.10;;;16.50;99.90;;;;;;2071719;28;20534;-71
2022/07/13 01:04:48;;;;;;;5.53;4.07;;;16.50;99.90;;;;;;2071441;28;20029;-72
2022/07/13 01:05:50;;;;;;;5.95;4.25;;;16.50;99.90;;;;;;2071711;28;20025;-72
2022/07/13 01:06:54;;;;;;;4.35;3.70;;;16.50;99.90;;;;;;2079911;28;20034;-71
2022/07/13 01:07:54;;;;;;;5.00;3.90;;;16.50;99.90;;;;;;2079917;28;20026;-72
2022/07/13 01:08:58;;;;;;;5.03;3.70;;;16.50;99.90;;;;;;2079855;28;20799;-71
2022/07/13 01:10:01;;;;;;;4.82;3.75;;;16.50;99.90;;;;;;2080710;28;20030;-72
2022/07/13 01:11:02;;;;;;;5.13;4.10;;;16.50;99.90;;;;;;2080615;28;20040;-71
2022/07/13 01:12:05;;;;;;;5.65;3.80;;;16.50;99.90;;;;;;2080602;28;20036;-73
2022/07/13 01:13:09;;;;;;;4.45;3.90;;;16.50;99.90;;;;;;2071559;28;20551;-73
2022/07/13 01:14:10;;;;;;;6.22;4.00;;;16.50;99.90;;;;;;2072139;28;20022;-74
2022/07/13 01:15:14;;;;;;;5.45;4.20;;;16.50;99.90;;;;;;2071822;28;20534;-74
2022/07/13 01:16:15;;;;;;;5.28;3.80;;;16.40;99.90;;;;;;2064053;28;20033;-72
2022/07/13 01:17:17;;;;;;;7.82;4.03;;;16.40;99.90;;;;;;2071631;28;20522;-72
2022/07/13 01:18:18;;;;;;;5.35;3.92;;;16.40;99.90;;;;;;2079308;28;20801;-71
2022/07/13 01:19:21;;;;;;;5.00;3.85;;;16.40;99.90;;;;;;2071707;28;20468;-72
2022/07/13 01:20:21;;;;;;;5.38;4.03;;;16.30;99.90;;;;;;2071942;28;20109;-71
2022/07/13 01:21:23;;;;;;;6.18;4.20;;;16.30;99.90;;;;;;2080074;28;20659;-73
2022/07/13 01:22:42;;;;;;;5.63;3.95;;;16.40;99.90;;;;;;2079817;28;20112;-73
2022/07/13 01:23:42;;;;;;;5.57;3.72;;;16.40;99.90;;;;;;2071919;28;20038;-72
2022/07/13 01:24:44;;;;;;;5.43;3.85;;;16.30;99.90;;;;;;2071670;28;20084;-72
2022/07/13 01:25:46;;;;;;;6.32;4.00;;;16.30;99.90;;;;;;2079823;28;20064;-71
2022/07/13 01:26:48;;;;;;;4.43;3.83;;;16.30;99.90;;;;;;2080160;28;20026;-70
2022/07/13 01:27:49;;;;;;;7.72;3.80;;;16.30;99.90;;;;;;2080532;28;20557;-72
2022/07/13 01:28:50;;;;;;;4.50;3.60;;;16.30;99.90;;;;;;2071586;28;20108;-72
2022/07/13 01:29:54;;;;;;;5.20;3.78;;;16.20;99.90;;;;;;2071753;28;20025;-71
2022/07/13 01:30:55;;;;;;;5.32;3.60;;;16.20;99.90;;;;;;2080501;28;20026;-71
2022/07/13 01:32:00;;;;;;;4.60;3.55;;;16.20;99.90;;;;;;2071580;28;20065;-71
2022/07/13 01:33:04;;;;;;;3.97;3.58;;;16.20;99.90;;;;;;2072995;28;20045;-72
2022/07/13 01:34:06;;;;;;;3.72;3.40;;;16.20;99.90;;;;;;2071484;28;20108;-73
2022/07/13 01:35:06;;;;;;;4.75;3.65;;;16.20;99.90;;;;;;2071833;28;20037;-73
2022/07/13 01:36:07;;;;;;;5.80;3.60;;;16.20;99.90;;;;;;2071297;28;20181;-72
2022/07/13 01:37:09;;;;;;;5.10;3.50;;;16.10;99.90;;;;;;2071183;28;20022;-71
2022/07/13 01:38:10;;;;;;;5.38;3.35;;;16.20;99.90;;;;;;2079363;28;20109;-70
2022/07/13 01:39:14;;;;;;;5.18;3.70;;;16.10;99.90;;;;;;2071318;28;20089;-72
2022/07/13 01:40:15;;;;;;;4.30;3.83;;;16.10;99.90;;;;;;2071812;28;20588;-73
2022/07/13 01:41:18;;;;;;;5.25;3.60;;;16.20;99.90;;;;;;2071589;28;20026;-71
2022/07/13 01:42:21;;;;;;;4.43;3.58;;;16.10;99.90;;;;;;2071812;28;20770;-72
2022/07/13 01:43:29;;;;;;;3.85;3.42;;;16.10;99.90;;;;;;2079681;28;20021;-72
2022/07/13 01:44:30;;;;;;;6.88;3.92;;;16.10;99.90;;;;;;2079836;28;20030;-71
2022/07/13 01:45:30;;;;;;;5.72;3.60;;;16.20;99.90;;;;;;2080326;28;20104;-72
2022/07/13 01:46:31;;;;;;;6.53;3.80;;;16.20;99.90;;;;;;2063372;28;20503;-71
2022/07/13 01:47:40;;;;;;;5.03;3.50;;;16.20;99.90;;;;;;2055043;28;20027;-71
2022/07/13 01:48:41;;;;;;;3.83;3.42;;;16.20;99.90;;;;;;2073079;28;20085;-73
2022/07/13 01:49:44;;;;;;;5.03;3.70;;;16.20;99.90;;;;;;2071530;28;20096;-72
2022/07/13 01:50:46;;;;;;;4.43;3.65;;;16.20;99.90;;;;;;2072241;28;20116;-72
2022/07/13 01:51:48;;;;;;;5.53;3.60;;;16.20;99.90;;;;;;2063712;28;20548;-71
2022/07/13 01:52:50;;;;;;;5.85;3.58;;;16.20;99.90;;;;;;2055658;28;20122;-72
2022/07/13 01:53:51;;;;;;;4.32;3.50;;;16.30;99.90;;;;;;2063761;28;20153;-72
2022/07/13 01:54:54;;;;;;;5.15;3.50;;;16.30;99.90;;;;;;2063515;28;20026;-73
2022/07/13 01:55:57;;;;;;;4.72;3.50;;;16.30;99.90;;;;;;2063436;28;20093;-72
2022/07/13 01:56:58;;;;;;;4.68;3.22;;;16.30;99.90;;;;;;2063123;28;20034;-72
2022/07/13 01:57:59;;;;;;;5.72;3.60;;;16.30;99.90;;;;;;2071381;28;20513;-73
2022/07/13 01:59:01;;;;;;;3.95;3.55;;;16.30;99.90;;;;;;2071510;28;20034;-72
2022/07/13 02:00:09;;;;;;;3.85;3.45;;;16.30;99.90;;;;;;2064070;28;20019;-71
2022/07/13 02:01:15;;;;;;;4.82;3.60;;;16.30;99.90;;;;;;2073386;28;20582;-72
2022/07/13 02:02:18;;;;;;;4.45;3.63;;;16.30;99.90;;;;;;2071352;28;20127;-75
2022/07/13 02:03:19;;;;;;;5.47;3.42;;;16.30;99.90;;;;;;2071186;28;20048;-71
2022/07/13 02:04:20;;;;;;;5.07;3.45;;;16.40;99.90;;;;;;2063368;28;20050;-71
2022/07/13 02:05:31;;;;;;;5.65;3.50;;;16.40;99.90;;;;;;2063391;28;20085;-72
2022/07/13 02:06:32;;;;;;;4.63;3.70;;;16.40;99.90;;;;;;2073095;28;20516;-72
2022/07/13 02:07:32;;;;;;;5.72;3.65;;;16.40;99.90;;;;;;2064478;28;20113;-72
2022/07/13 02:08:34;;;;;;;5.75;3.85;;;16.40;99.90;;;;;;2072968;28;20042;-72
2022/07/13 02:09:36;;;;;;;4.60;3.60;;;16.40;99.90;;;;;;2072746;28;20108;-72
2022/07/13 02:10:37;;;;;;;4.40;3.45;;;16.50;99.90;;;;;;2072874;28;20030;-73
2022/07/13 02:11:39;;;;;;;4.65;3.70;;;16.50;99.90;;;;;;2081934;28;20680;-72
2022/07/13 02:12:41;;;;;;;5.38;3.58;;;16.40;99.90;;;;;;2081549;28;20037;-72
2022/07/13 02:13:44;;;;;;;4.10;3.70;;;16.50;99.90;;;;;;2072919;28;20086;-71
2022/07/13 02:14:46;;;;;;;5.15;4.03;;;16.50;99.90;;;;;;2064937;28;20392;-72
2022/07/13 02:15:46;;;;;;;5.28;4.45;;;16.50;99.90;;;;;;2072940;28;20467;-72
2022/07/13 02:16:48;;;;;;;4.35;3.90;;;16.50;99.90;;;;;;2080847;28;20026;-72
2022/07/13 02:17:48;;;;;;;4.45;4.00;;;16.50;99.90;;;;;;2081542;28;20557;-72
2022/07/13 02:18:49;;;;;;;5.28;3.70;;;16.50;99.90;;;;;;2064535;28;20022;-73
2022/07/13 02:19:50;;;;;;;4.78;4.00;;;16.50;99.90;;;;;;2072810;28;20022;-72
2022/07/13 02:20:57;;;;;;;6.22;4.40;;;16.50;99.90;;;;;;2080431;28;20029;-73
2022/07/13 02:22:01;;;;;;;4.95;4.00;;;16.50;99.90;;;;;;2065282;28;20114;-71
2022/07/13 02:23:02;;;;;;;4.97;4.00;;;16.50;99.90;;;;;;2072849;28;20041;-72
2022/07/13 02:24:06;;;;;;;4.97;3.97;;;16.60;99.90;;;;;;2073091;28;20061;-71
2022/07/13 02:25:10;;;;;;;4.90;4.03;;;16.60;99.90;;;;;;2081143;28;20124;-71
2022/07/13 02:26:11;;;;;;;5.05;3.70;;;16.60;99.90;;;;;;2072852;28;20056;-71
2022/07/13 02:27:14;;;;;;;6.53;3.90;;;16.60;99.90;;;;;;2072904;28;20022;-72
2022/07/13 02:28:15;;;;;;;7.68;4.20;;;16.60;99.90;;;;;;2081040;28;20087;-72
2022/07/13 02:29:16;;;;;;;4.35;3.72;;;16.60;99.90;;;;;;2081710;28;20036;-73
2022/07/13 02:30:17;;;;;;;4.50;3.70;;;16.60;99.90;;;;;;2080568;28;20025;-73
2022/07/13 02:31:19;;;;;;;4.25;3.75;;;16.60;99.90;;;;;;2072661;28;20029;-72
2022/07/13 02:32:22;;;;;;;3.83;3.50;;;16.60;99.90;;;;;;2072561;28;20053;-71
2022/07/13 02:33:24;;;;;;;5.10;3.38;;;16.60;99.90;;;;;;2081406;28;20036;-72
2022/07/13 02:34:28;;;;;;;4.72;3.70;;;16.60;99.90;;;;;;2072824;28;20033;-72
2022/07/13 02:35:32;;;;;;;5.63;3.63;;;16.70;99.90;;;;;;2073608;28;20026;-71
2022/07/13 02:36:33;;;;;;;4.78;3.60;;;16.70;99.90;;;;;;2080823;28;20025;-72
2022/07/13 02:37:33;;;;;;;5.75;3.67;;;16.70;99.90;;;;;;2081432;28;20402;-71
2022/07/13 02:38:34;;;;;;;5.53;3.42;;;16.70;99.90;;;;;;2081512;28;20032;-72
2022/07/13 02:39:39;;;;;;;5.10;3.25;;;16.60;99.90;;;;;;2081857;28;20029;-72
2022/07/13 02:40:40;;;;;;;4.75;3.33;;;16.70;99.90;;;;;;2064658;28;20834;-72
2022/07/13 02:41:41;;;;;;;4.10;3.33;;;16.70;99.90;;;;;;2064989;28;20050;-71
2022/07/13 02:42:42;;;;;;;3.75;3.30;;;16.70;99.90;;;;;;2082352;28;20048;-71
2022/07/13 02:43:42;;;;;;;5.78;3.17;;;16.70;99.90;;;;;;2073329;28;20057;-71
2022/07/13 02:44:45;;;;;;;4.13;3.20;;;16.70;99.90;;;;;;2073543;28;20052;-72
2022/07/13 02:45:46;;;;;;;3.97;3.25;;;16.70;99.90;;;;;;2073501;28;20103;-73
2022/07/13 02:46:47;;;;;;;3.95;3.20;;;16.70;99.90;;;;;;2056924;28;20065;-72
2022/07/13 02:47:51;;;;;;;3.88;3.38;;;16.70;99.90;;;;;;2065088;28;20023;-71
2022/07/13 02:48:52;;;;;;;4.13;3.70;;;16.70;99.90;;;;;;2073228;28;20033;-72
2022/07/13 02:49:53;;;;;;;9.20;3.30;;;16.70;99.90;;;;;;2073071;28;20030;-72
2022/07/13 02:50:54;;;;;;;3.40;3.05;;;16.70;99.90;;;;;;2065052;28;20026;-72
2022/07/13 02:51:55;;;;;;;3.47;3.17;;;16.70;99.90;;;;;;2073291;28;20052;-72
2022/07/13 02:52:56;;;;;;;5.05;3.50;;;16.70;99.90;;;;;;2073124;28;20095;-72
2022/07/13 02:54:10;;;;;;;5.18;3.22;;;16.70;99.90;;;;;;2074727;28;20030;-70
2022/07/13 02:55:11;;;;;;;4.95;3.30;;;16.70;99.90;;;;;;2072618;28;20040;-71
2022/07/13 02:56:14;;;;;;;3.95;3.45;;;16.70;99.90;;;;;;2072516;28;20607;-71
2022/07/13 02:57:15;;;;;;;3.67;3.25;;;16.70;99.90;;;;;;2072709;28;20041;-71
2022/07/13 02:58:15;;;;;;;4.13;3.40;;;16.70;99.90;;;;;;2073134;28;20610;-71
2022/07/13 02:59:17;;;;;;;3.70;3.00;;;16.80;99.90;;;;;;2065398;28;20034;-72
2022/07/13 03:00:18;;;;;;;4.50;3.05;;;16.70;99.90;;;;;;2065964;28;20440;-72
2022/07/13 03:01:28;;;;;;;3.95;3.30;;;16.80;99.90;;;;;;2074520;28;20026;-72
2022/07/13 03:02:29;;;;;;;3.42;3.10;;;16.80;99.90;;;;;;2082104;28;20041;-72
2022/07/13 03:03:30;;;;;;;3.50;2.85;;;16.80;99.90;;;;;;2074038;28;20125;-74
2022/07/13 03:04:34;;;;;;;4.32;3.17;;;16.80;99.90;;;;;;2074167;28;20045;-71
2022/07/13 03:05:42;;;;;;;4.72;3.10;;;16.80;99.90;;;;;;2075419;28;20076;-72
2022/07/13 03:06:43;;;;;;;3.60;3.03;;;16.80;99.90;;;;;;2083804;28;20421;-72
2022/07/13 03:07:47;;;;;;;4.78;3.00;;;16.80;99.90;;;;;;2075093;28;20037;-71
2022/07/13 03:08:47;;;;;;;3.40;3.10;;;16.80;99.90;;;;;;2076001;28;20034;-72
2022/07/13 03:09:49;;;;;;;4.75;3.40;;;16.80;99.90;;;;;;2073250;28;20033;-70
2022/07/13 03:10:50;;;;;;;3.50;3.20;;;16.80;99.90;;;;;;2073151;28;20038;-72
2022/07/13 03:11:51;;;;;;;4.55;3.40;;;16.80;99.90;;;;;;2073103;28;20041;-72
2022/07/13 03:12:54;;;;;;;4.18;3.10;;;16.80;99.90;;;;;;2072419;28;20518;-71
2022/07/13 03:13:56;;;;;;;5.22;3.35;;;16.80;99.90;;;;;;2073005;28;20029;-72
2022/07/13 03:14:56;;;;;;;4.22;3.10;;;16.80;99.90;;;;;;2072922;28;20056;-73
2022/07/13 03:15:58;;;;;;;3.92;3.20;;;16.80;99.90;;;;;;2072783;28;20072;-71
2022/07/13 03:17:03;;;;;;;5.30;3.20;;;16.80;99.90;;;;;;2073038;28;20512;-71
2022/07/13 03:18:04;;;;;;;3.88;3.28;;;16.80;99.90;;;;;;2064667;28;20030;-71
2022/07/13 03:19:05;;;;;;;4.55;3.28;;;16.80;99.90;;;;;;2072926;28;20040;-71
2022/07/13 03:20:07;;;;;;;3.30;3.00;;;16.80;99.90;;;;;;2072756;28;20028;-71
2022/07/13 03:21:09;;;;;;;3.60;2.97;;;16.80;99.90;;;;;;2065478;28;20035;-71
2022/07/13 03:22:10;;;;;;;3.65;2.97;;;16.80;99.90;;;;;;2065281;28;20124;-71
2022/07/13 03:23:12;;;;;;;4.18;3.20;;;16.80;99.90;;;;;;2065369;28;20451;-72
2022/07/13 03:24:14;;;;;;;5.80;3.15;;;16.80;99.90;;;;;;2065067;28;20500;-72
2022/07/13 03:25:15;;;;;;;3.60;3.03;;;16.80;99.90;;;;;;2073384;28;20044;-71
2022/07/13 03:26:16;;;;;;;3.97;3.15;;;16.80;99.90;;;;;;2073440;28;20017;-72
2022/07/13 03:27:17;;;;;;;3.78;2.95;;;16.80;99.90;;;;;;2073230;28;20053;-72
2022/07/13 03:28:18;;;;;;;4.15;2.72;;;16.80;99.90;;;;;;2081873;28;20017;-71
2022/07/13 03:29:20;;;;;;;3.53;2.67;;;16.80;99.90;;;;;;2072856;28;20484;-71
2022/07/13 03:30:20;;;;;;;4.25;2.90;;;16.80;99.90;;;;;;2073169;28;20022;-71
2022/07/13 03:31:26;;;;;;;3.35;2.80;;;16.80;99.90;;;;;;2073126;28;20022;-71
2022/07/13 03:32:27;;;;;;;3.00;2.70;;;16.80;99.90;;;;;;2073524;28;20034;-72
2022/07/13 03:33:29;;;;;;;3.65;2.70;;;16.80;99.90;;;;;;2072850;28;20018;-71
2022/07/13 03:34:29;;;;;;;4.35;2.97;;;16.80;99.90;;;;;;2073126;28;20030;-72
2022/07/13 03:35:31;;;;;;;5.13;2.72;;;16.80;99.90;;;;;;2072921;28;20026;-71
2022/07/13 03:36:32;;;;;;;4.72;2.88;;;16.80;99.90;;;;;;2073051;28;20765;-72
2022/07/13 03:37:37;;;;;;;3.90;2.80;;;16.80;99.90;;;;;;2072231;28;20037;-72
2022/07/13 03:38:37;;;;;;;3.13;2.83;;;16.80;99.90;;;;;;2064440;28;20030;-72
2022/07/13 03:39:39;;;;;;;4.25;3.00;;;16.80;99.90;;;;;;2072840;28;20022;-72
2022/07/13 03:40:43;;;;;;;3.95;3.10;;;16.80;99.90;;;;;;2073028;28;20018;-71
2022/07/13 03:41:47;;;;;;;4.63;2.60;;;16.80;99.90;;;;;;2073169;28;20538;-71
2022/07/13 03:42:50;;;;;;;3.97;3.03;;;16.80;99.90;;;;;;2065391;28;20041;-72
2022/07/13 03:43:51;;;;;;;3.42;2.90;;;16.80;99.90;;;;;;2073193;28;20040;-71
2022/07/13 03:44:52;;;;;;;4.57;2.83;;;16.90;99.90;;;;;;2080983;28;20368;-74
2022/07/13 03:45:53;;;;;;;4.65;2.90;;;16.90;99.90;;;;;;2064606;28;20037;-70
2022/07/13 03:46:54;;;;;;;4.10;2.88;;;16.90;99.90;;;;;;2064598;28;20088;-72
2022/07/13 03:48:01;;;;;;;3.15;2.85;;;16.90;99.90;;;;;;2080913;28;20507;-70
2022/07/13 03:49:02;;;;;;;3.13;2.70;;;16.90;99.90;;;;;;2072363;28;20069;-70
2022/07/13 03:50:04;;;;;;;3.60;2.80;;;16.90;99.90;;;;;;2080863;28;20052;-71
2022/07/13 03:51:05;;;;;;;5.20;2.85;;;16.90;99.90;;;;;;2088779;28;20021;-71
2022/07/13 03:52:06;;;;;;;4.70;3.00;;;16.90;99.90;;;;;;2072403;28;20788;-70
2022/07/13 03:53:07;;;;;;;4.72;2.88;;;17.00;99.90;;;;;;2080564;28;20124;-70
2022/07/13 03:54:08;;;;;;;3.38;2.90;;;17.00;99.90;;;;;;2080388;28;20072;-71
2022/07/13 03:55:09;;;;;;;3.20;2.90;;;17.00;99.90;;;;;;2072598;28;20514;-70
2022/07/13 03:56:11;;;;;;;3.60;3.05;;;17.00;99.90;;;;;;2072712;28;20468;-71
2022/07/13 03:57:13;;;;;;;5.68;3.00;;;17.10;99.90;;;;;;2080329;28;20029;-71
2022/07/13 03:58:13;;;;;;;3.67;3.00;;;17.10;99.90;;;;;;2081090;28;20021;-71
2022/07/13 03:59:16;;;;;;;5.82;2.85;;;17.10;99.90;;;;;;2080331;28;20683;-71
2022/07/13 04:00:18;;;;;;;2.78;2.58;;;17.10;99.90;;;;;;2072493;28;20025;-70
2022/07/13 04:01:24;;;;;;;2.85;2.55;;;17.10;99.90;;;;;;2065054;28;20335;-70
2022/07/13 04:02:25;;;;;;;3.00;2.70;;;17.10;99.90;;;;;;2063861;28;20046;-70
2022/07/13 04:03:26;;;;;;;2.80;2.60;;;17.10;99.90;;;;;;2072099;28;20653;-70
2022/07/13 04:04:29;;;;;;;4.47;2.83;;;17.20;99.90;;;;;;2072178;28;20663;-71
2022/07/13 04:05:33;;;;;;;3.20;2.50;;;17.20;99.90;;;;;;2064215;28;20034;-70
2022/07/13 04:06:35;;;;;;;3.10;2.80;;;17.20;99.90;;;;;;2072391;28;20057;-70
2022/07/13 04:07:37;;;;;;;4.28;2.80;;;17.20;99.90;;;;;;2071817;28;20030;-72
2022/07/13 04:08:39;;;;;;;3.33;2.70;;;17.20;99.90;;;;;;2064297;28;20535;-71
2022/07/13 04:09:41;;;;;;;5.32;2.88;;;17.20;99.90;;;;;;2064329;28;20038;-70
2022/07/13 04:10:45;;;;;;;3.15;2.60;;;17.20;99.90;;;;;;2064454;28;20107;-71
2022/07/13 04:11:51;;;;;;;5.93;3.25;;;17.30;99.90;;;;;;2064348;28;20664;-71
2022/07/13 04:12:53;;;;;;;4.15;2.75;;;17.30;99.90;;;;;;2064641;28;20066;-71
2022/07/13 04:13:55;;;;;;;6.28;3.00;;;17.30;99.90;;;;;;2072495;28;20525;-70
2022/07/13 04:14:57;;;;;;;4.07;3.13;;;17.30;99.90;;;;;;2071959;28;20158;-71
2022/07/13 04:15:58;;;;;;;4.95;2.92;;;17.30;99.90;;;;;;2071970;28;20086;-71
2022/07/13 04:17:02;;;;;;;5.82;3.40;;;17.30;99.90;;;;;;2080031;28;20037;-71
2022/07/13 04:18:03;;;;;;;4.00;2.70;;;17.40;99.90;;;;;;2080267;28;20029;-70
2022/07/13 04:19:03;;;;;;;4.55;3.17;;;17.40;99.90;;;;;;2071946;28;20029;-70
2022/07/13 04:20:05;;;;;;;7.80;3.20;;;17.40;99.90;;;;;;2072075;28;20130;-71
2022/07/13 04:21:07;;;;;;;5.25;2.70;;;17.40;99.90;;;;;;2080712;28;20032;-70
2022/07/13 04:22:09;;;;;;;4.85;3.10;;;17.40;99.90;;;;;;2071912;28;20859;-70
2022/07/13 04:23:14;;;;;;;5.70;3.05;;;17.40;99.90;;;;;;2064396;28;20089;-71
2022/07/13 04:24:16;;;;;;;3.38;2.80;;;17.40;99.90;;;;;;2063931;28;20117;-71
2022/07/13 04:25:18;;;;;;;4.30;3.10;;;17.40;99.90;;;;;;2064372;28;20034;-71
2022/07/13 04:26:19;;;;;;;4.47;3.00;;;17.40;99.90;;;;;;2072195;28;20029;-70
2022/07/13 04:27:21;;;;;;;4.38;3.30;;;17.50;99.90;;;;;;2071797;28;20030;-70
2022/07/13 04:28:22;;;;;;;3.67;2.83;;;17.40;99.90;;;;;;2072274;28;20031;-71
2022/07/13 04:29:22;;;;;;;5.05;3.00;;;17.40;99.90;;;;;;2071898;28;20103;-71
2022/07/13 04:30:23;;;;;;;5.13;2.90;;;17.40;99.90;;;;;;2072198;28;20109;-71
2022/07/13 04:31:25;;;;;;;3.38;2.75;;;17.40;99.90;;;;;;2080122;28;20022;-73
2022/07/13 04:32:30;;;;;;;3.97;2.72;;;17.40;99.90;;;;;;2071801;28;20108;-71
2022/07/13 04:33:30;;;;;;;5.00;3.25;;;17.40;99.90;;;;;;2072046;28;20057;-71
2022/07/13 04:34:34;;;;;;;3.50;3.05;;;17.40;99.90;;;;;;2080065;28;20025;-72
2022/07/13 04:35:34;;;;;;;4.85;3.13;;;17.50;99.90;;;;;;2071687;28;20057;-72
2022/07/13 04:36:35;;;;;;;3.25;2.90;;;17.40;99.90;;;;;;2063983;28;20042;-71
2022/07/13 04:37:37;;;;;;;4.05;3.22;;;17.40;99.90;;;;;;2071720;28;20169;-70
2022/07/13 04:38:39;;;;;;;5.70;3.30;;;17.40;99.90;;;;;;2080130;28;20050;-71
2022/07/13 04:39:41;;;;;;;4.53;3.00;;;17.40;99.90;;;;;;2079995;28;20025;-71
2022/07/13 04:40:42;;;;;;;3.40;2.85;;;17.40;99.90;;;;;;2071643;28;20511;-70
2022/07/13 04:41:46;;;;;;;4.82;3.00;;;17.40;99.90;;;;;;2071855;28;20033;-70
2022/07/13 04:42:47;;;;;;;3.95;3.13;;;17.40;99.90;;;;;;2071651;28;20033;-70
2022/07/13 04:43:50;;;;;;;4.60;2.95;;;17.40;99.90;;;;;;2063844;28;20041;-72
2022/07/13 04:44:52;;;;;;;4.32;3.20;;;17.40;99.90;;;;;;2064185;28;20038;-71
2022/07/13 04:46:00;;;;;;;3.25;2.70;;;17.40;99.90;;;;;;2063697;28;20053;-71
2022/07/13 04:47:04;;;;;;;3.05;2.70;;;17.40;99.90;;;;;;2072566;28;20038;-70
2022/07/13 04:48:05;;;;;;;5.60;3.00;;;17.40;99.90;;;;;;2071776;28;20064;-73
2022/07/13 04:49:08;;;;;;;3.53;2.80;;;17.40;99.90;;;;;;2071851;28;20030;-71
2022/07/13 04:50:09;;;;;;;5.10;2.80;;;17.40;99.90;;;;;;2071766;28;20037;-71
2022/07/13 04:51:14;;;;;;;3.83;2.95;;;17.40;99.90;;;;;;2063791;28;20121;-73
2022/07/13 04:52:19;;;;;;;5.15;2.70;;;17.40;99.90;;;;;;2072262;28;20032;-71
2022/07/13 04:53:20;;;;;;;4.22;2.90;;;17.40;99.90;;;;;;2071700;28;20428;-72
2022/07/13 04:54:21;;;;;;;3.40;2.90;;;17.40;99.90;;;;;;2063571;28;20027;-71
2022/07/13 04:55:26;;;;;;;3.28;2.95;;;17.40;99.90;;;;;;2071906;28;20030;-72
2022/07/13 04:56:31;;;;;;;3.60;2.80;;;17.40;99.90;;;;;;2064693;28;20038;-73
2022/07/13 04:57:34;;;;;;;3.92;2.90;;;17.40;99.90;;;;;;2071879;28;20030;-72
2022/07/13 04:58:35;;;;;;;4.00;2.83;;;17.40;99.90;;;;;;2071762;28;20026;-70
2022/07/13 04:59:35;;;;;;;3.58;2.75;;;17.40;99.90;;;;;;2071867;28;20025;-72
2022/07/13 05:00:36;;;;;;;4.20;2.75;;;17.40;99.90;;;;;;2080199;28;20053;-71
2022/07/13 05:01:42;;;;;;;4.78;2.80;;;17.40;99.90;;;;;;2072248;28;20100;-72
2022/07/13 05:02:45;;;;;;;4.10;2.80;;;17.40;99.90;;;;;;2065030;28;20069;-71
2022/07/13 05:03:46;;;;;;;3.63;2.80;;;17.40;99.90;;;;;;2072206;28;20143;-72
2022/07/13 05:04:49;;;;;;;4.05;2.72;;;17.40;99.90;;;;;;2079911;28;20040;-71
2022/07/13 05:05:53;;;;;;;4.32;2.63;;;17.40;99.90;;;;;;2071779;28;20121;-71
2022/07/13 05:06:54;;;;;;;3.90;3.00;;;17.40;99.90;;;;;;2063998;28;20172;-72
2022/07/13 05:07:55;;;;;;;4.18;3.00;;;17.40;99.90;;;;;;2063509;28;20042;-72
2022/07/13 05:08:56;;;;;;;3.85;2.95;;;17.50;99.90;;;;;;2071965;28;20026;-71
2022/07/13 05:09:57;;;;;;;4.80;3.10;;;17.50;99.90;;;;;;2079687;28;20570;-71
2022/07/13 05:10:58;;;;;;;4.30;2.90;;;17.50;99.90;;;;;;2080047;28;20033;-71
2022/07/13 05:11:59;;;;;;;5.03;2.90;;;17.50;99.90;;;;;;2071801;28;20729;-71
2022/07/13 05:13:00;;;;;;;4.68;2.85;;;17.50;99.90;;;;;;2071492;28;20523;-71
2022/07/13 05:14:02;;;;;;;4.82;2.70;;;17.50;99.90;;;;;;2064099;28;20026;-70
2022/07/13 05:15:07;;;;;;;3.95;3.00;;;17.60;99.90;;;;;;2063900;28;20098;-73
2022/07/13 05:16:13;;;;;;;6.05;2.92;;;17.60;99.90;;;;;;2064475;28;20023;-74
2022/07/13 05:17:14;;;;;;;3.85;2.92;;;17.60;99.90;;;;;;2071443;28;20083;-71
2022/07/13 05:18:15;;;;;;;3.00;2.55;;;17.60;99.90;;;;;;2063477;28;20145;-71
2022/07/13 05:19:16;;;;;;;5.45;3.00;;;17.70;99.90;;;;;;2071737;28;20018;-72
2022/07/13 05:20:17;;;;;;;5.50;2.80;;;17.70;99.90;;;;;;2071590;28;20030;-71
2022/07/13 05:21:24;;;;;;;2.90;2.60;;;17.70;99.90;;;;;;2064499;28;20460;-71
2022/07/13 05:22:28;;;;;;;5.65;3.10;;;17.80;99.90;;;;;;2071791;28;20079;-71
2022/07/13 05:23:32;;;;;;;5.70;2.90;;;17.80;99.90;;;;;;2071513;28;20034;-72